sensor_id;sensor_type;location;lat;lon;timestamp;pressure;altitude;pressure_sealevel;temperature
73894;BMP280;62699;50.534;12.784;2024-03-08T00:03:26;96614.28;;;-2.01
73894;BMP280;62699;50.534;12.784;2024-03-08T00:08:27;96611.28;;;-2.03
73894;BMP280;62699;50.534;12.784;2024-03-08T00:13:27;96616.53;;;-2.00
73894;BMP280;62699;50.534;12.784;2024-03-08T00:18:28;96607.56;;;-2.06
73894;BMP280;62699;50.534;12.784;2024-03-08T00:23:29;96608.25;;;-2.02
73894;BMP280;62699;50.534;12.784;2024-03-08T00:28:29;96616.22;;;-2.05
73894;BMP280;62699;50.534;12.784;2024-03-08T00:33:30;96609.09;;;-2.08
73894;BMP280;62699;50.534;12.784;2024-03-08T00:38:31;96608.31;;;-2.05
73894;BMP280;62699;50.534;12.784;2024-03-08T00:43:31;96602.34;;;-2.09
73894;BMP280;62699;50.534;12.784;2024-03-08T00:48:32;96611.34;;;-2.07
73894;BMP280;62699;50.534;12.784;2024-03-08T00:53:32;96596.50;;;-1.94
73894;BMP280;62699;50.534;12.784;2024-03-08T00:58:33;96591.69;;;-2.02
73894;BMP280;62699;50.534;12.784;2024-03-08T01:03:33;96591.75;;;-2.06
73894;BMP280;62699;50.534;12.784;2024-03-08T01:08:34;96580.59;;;-2.17
73894;BMP280;62699;50.534;12.784;2024-03-08T01:13:37;96572.22;;;-2.12
73894;BMP280;62699;50.534;12.784;2024-03-08T01:18:37;96578.19;;;-2.08
73894;BMP280;62699;50.534;12.784;2024-03-08T01:23:38;96577.50;;;-2.12
73894;BMP280;62699;50.534;12.784;2024-03-08T01:28:38;96563.25;;;-2.18
73894;BMP280;62699;50.534;12.784;2024-03-08T01:33:38;96564.88;;;-2.28
73894;BMP280;62699;50.534;12.784;2024-03-08T01:38:38;96561.06;;;-2.23
73894;BMP280;62699;50.534;12.784;2024-03-08T01:43:39;96552.47;;;-2.27
73894;BMP280;62699;50.534;12.784;2024-03-08T01:48:39;96543.53;;;-2.40
73894;BMP280;62699;50.534;12.784;2024-03-08T01:53:42;96540.56;;;-2.42
73894;BMP280;62699;50.534;12.784;2024-03-08T01:58:43;96530.56;;;-2.55
73894;BMP280;62699;50.534;12.784;2024-03-08T02:03:44;96528.03;;;-2.65
73894;BMP280;62699;50.534;12.784;2024-03-08T02:08:44;96535.91;;;-2.62
73894;BMP280;62699;50.534;12.784;2024-03-08T02:13:45;96526.50;;;-2.63
73894;BMP280;62699;50.534;12.784;2024-03-08T02:18:45;96526.09;;;-2.65
73894;BMP280;62699;50.534;12.784;2024-03-08T02:23:46;96515.56;;;-2.65
73894;BMP280;62699;50.534;12.784;2024-03-08T02:28:46;96517.84;;;-2.63
73894;BMP280;62699;50.534;12.784;2024-03-08T02:33:47;96509.56;;;-2.65
73894;BMP280;62699;50.534;12.784;2024-03-08T02:38:47;96512.22;;;-2.65
73894;BMP280;62699;50.534;12.784;2024-03-08T02:43:47;96499.44;;;-2.67
73894;BMP280;62699;50.534;12.784;2024-03-08T02:48:48;96503.97;;;-2.71
73894;BMP280;62699;50.534;12.784;2024-03-08T02:53:48;96502.38;;;-2.65
73894;BMP280;62699;50.534;12.784;2024-03-08T02:58:51;96500.59;;;-2.71
73894;BMP280;62699;50.534;12.784;2024-03-08T03:03:52;96497.59;;;-2.73
73894;BMP280;62699;50.534;12.784;2024-03-08T03:08:52;96491.25;;;-2.76
73894;BMP280;62699;50.534;12.784;2024-03-08T03:13:52;96497.56;;;-2.70
73894;BMP280;62699;50.534;12.784;2024-03-08T03:18:52;96497.88;;;-2.64
73894;BMP280;62699;50.534;12.784;2024-03-08T03:23:53;96499.41;;;-2.63
73894;BMP280;62699;50.534;12.784;2024-03-08T03:28:53;96497.88;;;-2.64
73894;BMP280;62699;50.534;12.784;2024-03-08T03:33:53;96496.69;;;-2.56
73894;BMP280;62699;50.534;12.784;2024-03-08T03:38:54;96486.03;;;-2.49
73894;BMP280;62699;50.534;12.784;2024-03-08T03:44:07;96480.75;;;-2.45
73894;BMP280;62699;50.534;12.784;2024-03-08T03:49:07;96490.41;;;-2.35
73894;BMP280;62699;50.534;12.784;2024-03-08T03:54:08;96488.91;;;-2.36
73894;BMP280;62699;50.534;12.784;2024-03-08T03:59:08;96481.75;;;-2.36
73894;BMP280;62699;50.534;12.784;2024-03-08T04:04:08;96465.72;;;-2.48
73894;BMP280;62699;50.534;12.784;2024-03-08T04:09:08;96466.56;;;-2.55
73894;BMP280;62699;50.534;12.784;2024-03-08T04:14:09;96459.03;;;-2.57
73894;BMP280;62699;50.534;12.784;2024-03-08T04:19:09;96459.72;;;-2.53
73894;BMP280;62699;50.534;12.784;2024-03-08T04:24:10;96462.16;;;-2.65
73894;BMP280;62699;50.534;12.784;2024-03-08T04:29:10;96457.69;;;-2.72
73894;BMP280;62699;50.534;12.784;2024-03-08T04:34:11;96450.25;;;-2.77
73894;BMP280;62699;50.534;12.784;2024-03-08T04:39:11;96441.97;;;-2.79
73894;BMP280;62699;50.534;12.784;2024-03-08T04:44:13;96445.00;;;-2.80
73894;BMP280;62699;50.534;12.784;2024-03-08T04:49:13;96448.28;;;-2.73
73894;BMP280;62699;50.534;12.784;2024-03-08T04:54:13;96433.19;;;-2.69
73894;BMP280;62699;50.534;12.784;2024-03-08T04:59:14;96433.09;;;-2.58
73894;BMP280;62699;50.534;12.784;2024-03-08T05:04:14;96430.22;;;-2.44
73894;BMP280;62699;50.534;12.784;2024-03-08T05:09:15;96430.03;;;-2.30
73894;BMP280;62699;50.534;12.784;2024-03-08T05:14:16;96429.22;;;-2.23
73894;BMP280;62699;50.534;12.784;2024-03-08T05:19:20;96419.25;;;-2.12
73894;BMP280;62699;50.534;12.784;2024-03-08T05:24:21;96416.09;;;-2.03
73894;BMP280;62699;50.534;12.784;2024-03-08T05:29:21;96407.00;;;-1.99
73894;BMP280;62699;50.534;12.784;2024-03-08T05:34:21;96403.09;;;-1.91
73894;BMP280;62699;50.534;12.784;2024-03-08T05:39:22;96398.47;;;-1.83
73894;BMP280;62699;50.534;12.784;2024-03-08T05:44:22;96396.91;;;-1.80
73894;BMP280;62699;50.534;12.784;2024-03-08T05:49:23;96393.13;;;-1.79
73894;BMP280;62699;50.534;12.784;2024-03-08T05:54:25;96397.59;;;-1.76
73894;BMP280;62699;50.534;12.784;2024-03-08T05:59:25;96394.09;;;-1.70
73894;BMP280;62699;50.534;12.784;2024-03-08T06:04:25;96394.31;;;-1.41
73894;BMP280;62699;50.534;12.784;2024-03-08T06:09:25;96380.88;;;-1.27
73894;BMP280;62699;50.534;12.784;2024-03-08T06:14:26;96383.47;;;-1.23
73894;BMP280;62699;50.534;12.784;2024-03-08T06:19:26;96384.63;;;-0.88
73894;BMP280;62699;50.534;12.784;2024-03-08T06:24:26;96385.09;;;-0.74
73894;BMP280;62699;50.534;12.784;2024-03-08T06:29:27;96380.56;;;-0.57
73894;BMP280;62699;50.534;12.784;2024-03-08T06:34:27;96383.22;;;-0.41
73894;BMP280;62699;50.534;12.784;2024-03-08T06:39:27;96376.91;;;-0.11
73894;BMP280;62699;50.534;12.784;2024-03-08T06:44:31;96379.09;;;0.36
73894;BMP280;62699;50.534;12.784;2024-03-08T06:49:32;96380.22;;;0.51
73894;BMP280;62699;50.534;12.784;2024-03-08T06:54:33;96373.94;;;0.74
73894;BMP280;62699;50.534;12.784;2024-03-08T06:59:33;96363.16;;;2.60
73894;BMP280;62699;50.534;12.784;2024-03-08T07:04:35;96366.66;;;5.82
73894;BMP280;62699;50.534;12.784;2024-03-08T07:09:38;96369.50;;;7.86
73894;BMP280;62699;50.534;12.784;2024-03-08T07:14:38;96378.13;;;9.69
73894;BMP280;62699;50.534;12.784;2024-03-08T07:19:40;96372.41;;;11.56
73894;BMP280;62699;50.534;12.784;2024-03-08T07:24:40;96380.25;;;13.33
73894;BMP280;62699;50.534;12.784;2024-03-08T07:30:10;96374.28;;;13.40
73894;BMP280;62699;50.534;12.784;2024-03-08T07:35:11;96380.41;;;12.49
73894;BMP280;62699;50.534;12.784;2024-03-08T07:40:11;96369.88;;;12.94
73894;BMP280;62699;50.534;12.784;2024-03-08T07:45:13;96368.25;;;11.55
73894;BMP280;62699;50.534;12.784;2024-03-08T07:50:14;96362.91;;;12.26
73894;BMP280;62699;50.534;12.784;2024-03-08T07:55:16;96363.03;;;9.99
73894;BMP280;62699;50.534;12.784;2024-03-08T08:00:16;96352.09;;;11.44
73894;BMP280;62699;50.534;12.784;2024-03-08T08:05:20;96368.97;;;10.26
73894;BMP280;62699;50.534;12.784;2024-03-08T08:10:20;96358.69;;;10.07
73894;BMP280;62699;50.534;12.784;2024-03-08T08:15:24;96352.84;;;9.33
73894;BMP280;62699;50.534;12.784;2024-03-08T08:20:25;96344.22;;;10.88
73894;BMP280;62699;50.534;12.784;2024-03-08T08:25:26;96346.22;;;11.40
73894;BMP280;62699;50.534;12.784;2024-03-08T08:30:26;96343.84;;;9.42
73894;BMP280;62699;50.534;12.784;2024-03-08T08:35:26;96342.41;;;8.61
73894;BMP280;62699;50.534;12.784;2024-03-08T08:40:27;96347.44;;;10.26
73894;BMP280;62699;50.534;12.784;2024-03-08T08:45:27;96337.13;;;10.80
73894;BMP280;62699;50.534;12.784;2024-03-08T08:50:27;96323.00;;;10.24
73894;BMP280;62699;50.534;12.784;2024-03-08T08:55:28;96328.81;;;9.83
73894;BMP280;62699;50.534;12.784;2024-03-08T09:00:28;96319.69;;;9.53
73894;BMP280;62699;50.534;12.784;2024-03-08T09:05:31;96322.56;;;9.33
73894;BMP280;62699;50.534;12.784;2024-03-08T09:10:31;96319.03;;;8.36
73894;BMP280;62699;50.534;12.784;2024-03-08T09:15:31;96308.94;;;7.74
73894;BMP280;62699;50.534;12.784;2024-03-08T09:20:31;96299.59;;;8.15
73894;BMP280;62699;50.534;12.784;2024-03-08T09:25:32;96298.44;;;6.89
73894;BMP280;62699;50.534;12.784;2024-03-08T09:30:32;96294.38;;;7.34
73894;BMP280;62699;50.534;12.784;2024-03-08T09:35:34;96285.09;;;6.75
73894;BMP280;62699;50.534;12.784;2024-03-08T09:40:34;96282.06;;;6.67
73894;BMP280;62699;50.534;12.784;2024-03-08T09:45:36;96273.38;;;7.07
73894;BMP280;62699;50.534;12.784;2024-03-08T09:50:42;96275.88;;;6.76
73894;BMP280;62699;50.534;12.784;2024-03-08T09:55:43;96274.25;;;6.84
73894;BMP280;62699;50.534;12.784;2024-03-08T10:00:45;96258.09;;;6.58
73894;BMP280;62699;50.534;12.784;2024-03-08T10:05:45;96253.63;;;6.49
73894;BMP280;62699;50.534;12.784;2024-03-08T10:10:46;96247.09;;;6.71
73894;BMP280;62699;50.534;12.784;2024-03-08T10:15:46;96230.94;;;7.20
73894;BMP280;62699;50.534;12.784;2024-03-08T10:21:01;96224.97;;;7.57
73894;BMP280;62699;50.534;12.784;2024-03-08T10:26:14;96231.44;;;7.96
73894;BMP280;62699;50.534;12.784;2024-03-08T10:31:15;96234.16;;;8.33
73894;BMP280;62699;50.534;12.784;2024-03-08T10:36:16;96223.19;;;7.74
73894;BMP280;62699;50.534;12.784;2024-03-08T10:41:16;96231.41;;;8.22
73894;BMP280;62699;50.534;12.784;2024-03-08T10:51:42;96227.97;;;8.58
73894;BMP280;62699;50.534;12.784;2024-03-08T10:56:42;96232.13;;;8.65
73894;BMP280;62699;50.534;12.784;2024-03-08T11:01:42;96227.66;;;8.51
73894;BMP280;62699;50.534;12.784;2024-03-08T11:06:45;96230.78;;;8.86
73894;BMP280;62699;50.534;12.784;2024-03-08T11:11:46;96223.22;;;8.79
73894;BMP280;62699;50.534;12.784;2024-03-08T11:16:46;96219.13;;;8.47
73894;BMP280;62699;50.534;12.784;2024-03-08T11:21:47;96214.59;;;8.27
73894;BMP280;62699;50.534;12.784;2024-03-08T11:26:47;96225.56;;;8.23
73894;BMP280;62699;50.534;12.784;2024-03-08T11:31:48;96197.25;;;8.65
73894;BMP280;62699;50.534;12.784;2024-03-08T11:36:48;96185.69;;;8.42
73894;BMP280;62699;50.534;12.784;2024-03-08T11:41:48;96196.03;;;8.66
73894;BMP280;62699;50.534;12.784;2024-03-08T11:46:48;96191.16;;;8.59
73894;BMP280;62699;50.534;12.784;2024-03-08T11:51:52;96182.22;;;8.78
73894;BMP280;62699;50.534;12.784;2024-03-08T11:56:54;96191.41;;;8.66
73894;BMP280;62699;50.534;12.784;2024-03-08T12:02:03;96179.09;;;8.43
73894;BMP280;62699;50.534;12.784;2024-03-08T12:07:03;96180.56;;;8.39
73894;BMP280;62699;50.534;12.784;2024-03-08T12:12:09;96174.78;;;8.14
73894;BMP280;62699;50.534;12.784;2024-03-08T12:17:11;96177.47;;;8.14
73894;BMP280;62699;50.534;12.784;2024-03-08T12:22:14;96171.47;;;8.30
73894;BMP280;62699;50.534;12.784;2024-03-08T12:27:19;96157.47;;;8.15
73894;BMP280;62699;50.534;12.784;2024-03-08T12:32:20;96154.09;;;8.20
73894;BMP280;62699;50.534;12.784;2024-03-08T12:37:23;96155.78;;;7.81
73894;BMP280;62699;50.534;12.784;2024-03-08T12:42:23;96145.47;;;8.05
73894;BMP280;62699;50.534;12.784;2024-03-08T12:47:24;96140.34;;;8.02
73894;BMP280;62699;50.534;12.784;2024-03-08T12:52:24;96134.06;;;8.10
73894;BMP280;62699;50.534;12.784;2024-03-08T12:57:24;96133.06;;;8.08
73894;BMP280;62699;50.534;12.784;2024-03-08T13:02:27;96120.44;;;8.19
73894;BMP280;62699;50.534;12.784;2024-03-08T13:07:27;96121.75;;;8.29
73894;BMP280;62699;50.534;12.784;2024-03-08T13:12:27;96122.22;;;8.28
73894;BMP280;62699;50.534;12.784;2024-03-08T13:17:27;96114.06;;;8.11
73894;BMP280;62699;50.534;12.784;2024-03-08T13:22:29;96106.78;;;7.75
73894;BMP280;62699;50.534;12.784;2024-03-08T13:27:29;96112.56;;;8.05
73894;BMP280;62699;50.534;12.784;2024-03-08T13:32:29;96093.38;;;8.12
73894;BMP280;62699;50.534;12.784;2024-03-08T13:37:31;96111.44;;;7.80
73894;BMP280;62699;50.534;12.784;2024-03-08T13:42:33;96098.84;;;7.91
73894;BMP280;62699;50.534;12.784;2024-03-08T13:47:33;96102.81;;;7.65
73894;BMP280;62699;50.534;12.784;2024-03-08T13:52:34;96093.84;;;7.73
73894;BMP280;62699;50.534;12.784;2024-03-08T13:57:35;96098.06;;;7.23
73894;BMP280;62699;50.534;12.784;2024-03-08T14:02:35;96092.50;;;7.26
73894;BMP280;62699;50.534;12.784;2024-03-08T14:07:35;96086.13;;;7.24
73894;BMP280;62699;50.534;12.784;2024-03-08T14:12:36;96087.41;;;7.28
73894;BMP280;62699;50.534;12.784;2024-03-08T14:17:38;96071.22;;;7.12
73894;BMP280;62699;50.534;12.784;2024-03-08T14:22:38;96066.00;;;7.28
73894;BMP280;62699;50.534;12.784;2024-03-08T14:27:38;96063.69;;;7.41
73894;BMP280;62699;50.534;12.784;2024-03-08T14:32:40;96066.09;;;7.39
73894;BMP280;62699;50.534;12.784;2024-03-08T14:37:41;96061.88;;;7.33
73894;BMP280;62699;50.534;12.784;2024-03-08T14:42:43;96054.47;;;7.17
73894;BMP280;62699;50.534;12.784;2024-03-08T14:47:44;96044.88;;;7.36
73894;BMP280;62699;50.534;12.784;2024-03-08T14:52:44;96039.50;;;7.36
73894;BMP280;62699;50.534;12.784;2024-03-08T14:57:48;96034.34;;;7.27
73894;BMP280;62699;50.534;12.784;2024-03-08T15:02:51;96030.91;;;7.26
73894;BMP280;62699;50.534;12.784;2024-03-08T15:07:54;96024.19;;;7.05
73894;BMP280;62699;50.534;12.784;2024-03-08T15:12:54;96021.41;;;6.94
73894;BMP280;62699;50.534;12.784;2024-03-08T15:17:55;96018.56;;;6.77
73894;BMP280;62699;50.534;12.784;2024-03-08T15:22:58;96002.53;;;6.83
73894;BMP280;62699;50.534;12.784;2024-03-08T15:27:58;96008.78;;;6.74
73894;BMP280;62699;50.534;12.784;2024-03-08T15:32:58;96000.47;;;6.66
73894;BMP280;62699;50.534;12.784;2024-03-08T15:38:03;95989.91;;;6.57
73894;BMP280;62699;50.534;12.784;2024-03-08T15:43:04;95987.97;;;6.58
73894;BMP280;62699;50.534;12.784;2024-03-08T15:48:05;95983.81;;;6.57
73894;BMP280;62699;50.534;12.784;2024-03-08T15:53:06;95973.56;;;6.50
73894;BMP280;62699;50.534;12.784;2024-03-08T15:58:06;95976.16;;;6.44
73894;BMP280;62699;50.534;12.784;2024-03-08T16:03:08;95967.63;;;6.40
73894;BMP280;62699;50.534;12.784;2024-03-08T16:08:12;95957.06;;;6.31
73894;BMP280;62699;50.534;12.784;2024-03-08T16:13:20;95962.31;;;6.20
73894;BMP280;62699;50.534;12.784;2024-03-08T16:18:23;95961.75;;;6.16
73894;BMP280;62699;50.534;12.784;2024-03-08T16:23:24;95963.91;;;6.12
73894;BMP280;62699;50.534;12.784;2024-03-08T16:28:26;95949.81;;;6.11
73894;BMP280;62699;50.534;12.784;2024-03-08T16:33:28;95951.88;;;6.02
73894;BMP280;62699;50.534;12.784;2024-03-08T16:38:28;95944.94;;;5.90
73894;BMP280;62699;50.534;12.784;2024-03-08T16:43:28;95947.00;;;5.80
73894;BMP280;62699;50.534;12.784;2024-03-08T16:48:28;95940.38;;;5.75
73894;BMP280;62699;50.534;12.784;2024-03-08T16:53:30;95931.03;;;5.65
73894;BMP280;62699;50.534;12.784;2024-03-08T16:58:31;95925.84;;;5.56
73894;BMP280;62699;50.534;12.784;2024-03-08T17:03:32;95930.34;;;5.50
73894;BMP280;62699;50.534;12.784;2024-03-08T17:08:32;95922.59;;;5.52
73894;BMP280;62699;50.534;12.784;2024-03-08T17:13:35;95921.53;;;5.29
73894;BMP280;62699;50.534;12.784;2024-03-08T17:18:36;95915.34;;;5.18
73894;BMP280;62699;50.534;12.784;2024-03-08T17:23:36;95907.06;;;5.16
73894;BMP280;62699;50.534;12.784;2024-03-08T17:28:37;95914.41;;;5.21
73894;BMP280;62699;50.534;12.784;2024-03-08T17:33:41;95920.13;;;5.14
73894;BMP280;62699;50.534;12.784;2024-03-08T17:38:42;95904.75;;;5.09
73894;BMP280;62699;50.534;12.784;2024-03-08T17:43:47;95899.53;;;4.99
73894;BMP280;62699;50.534;12.784;2024-03-08T17:48:47;95898.81;;;4.84
73894;BMP280;62699;50.534;12.784;2024-03-08T17:53:48;95897.16;;;4.87
73894;BMP280;62699;50.534;12.784;2024-03-08T17:58:51;95894.38;;;4.81
73894;BMP280;62699;50.534;12.784;2024-03-08T18:03:51;95903.03;;;4.76
73894;BMP280;62699;50.534;12.784;2024-03-08T18:08:53;95903.41;;;4.69
73894;BMP280;62699;50.534;12.784;2024-03-08T18:13:53;95912.16;;;4.84
73894;BMP280;62699;50.534;12.784;2024-03-08T18:18:53;95892.00;;;4.83
73894;BMP280;62699;50.534;12.784;2024-03-08T18:23:54;95909.84;;;4.77
73894;BMP280;62699;50.534;12.784;2024-03-08T18:28:55;95893.84;;;4.77
73894;BMP280;62699;50.534;12.784;2024-03-08T18:33:56;95892.00;;;4.83
73894;BMP280;62699;50.534;12.784;2024-03-08T18:39:02;95903.03;;;4.76
73894;BMP280;62699;50.534;12.784;2024-03-08T18:44:10;95893.31;;;4.73
73894;BMP280;62699;50.534;12.784;2024-03-08T18:49:10;95897.91;;;4.73
73894;BMP280;62699;50.534;12.784;2024-03-08T18:54:10;95886.22;;;4.70
73894;BMP280;62699;50.534;12.784;2024-03-08T18:59:12;95882.44;;;4.77
73894;BMP280;62699;50.534;12.784;2024-03-08T19:04:13;95881.34;;;4.69
73894;BMP280;62699;50.534;12.784;2024-03-08T19:09:14;95883.19;;;4.62
73894;BMP280;62699;50.534;12.784;2024-03-08T19:14:14;95885.13;;;4.62
73894;BMP280;62699;50.534;12.784;2024-03-08T19:19:18;95879.22;;;4.58
73894;BMP280;62699;50.534;12.784;2024-03-08T19:24:21;95882.63;;;4.58
73894;BMP280;62699;50.534;12.784;2024-03-08T19:29:21;95881.63;;;4.56
73894;BMP280;62699;50.534;12.784;2024-03-08T19:34:25;95875.75;;;4.52
73894;BMP280;62699;50.534;12.784;2024-03-08T19:39:26;95880.78;;;4.50
73894;BMP280;62699;50.534;12.784;2024-03-08T19:44:27;95857.63;;;4.41
73894;BMP280;62699;50.534;12.784;2024-03-08T19:49:27;95871.06;;;4.32
73894;BMP280;62699;50.534;12.784;2024-03-08T19:54:28;95872.88;;;4.26
73894;BMP280;62699;50.534;12.784;2024-03-08T19:59:29;95878.72;;;4.15
73894;BMP280;62699;50.534;12.784;2024-03-08T20:04:30;95871.56;;;4.07
73894;BMP280;62699;50.534;12.784;2024-03-08T20:09:31;95877.22;;;4.00
73894;BMP280;62699;50.534;12.784;2024-03-08T20:14:32;95857.78;;;3.94
73894;BMP280;62699;50.534;12.784;2024-03-08T20:19:35;95853.25;;;3.85
73894;BMP280;62699;50.534;12.784;2024-03-08T20:24:36;95859.47;;;3.82
73894;BMP280;62699;50.534;12.784;2024-03-08T20:29:38;95854.19;;;3.73
73894;BMP280;62699;50.534;12.784;2024-03-08T20:34:40;95845.31;;;3.76
73894;BMP280;62699;50.534;12.784;2024-03-08T20:39:41;95843.91;;;3.66
73894;BMP280;62699;50.534;12.784;2024-03-08T20:44:42;95848.06;;;3.58
73894;BMP280;62699;50.534;12.784;2024-03-08T20:49:43;95839.34;;;3.57
73894;BMP280;62699;50.534;12.784;2024-03-08T20:54:43;95831.16;;;3.46
73894;BMP280;62699;50.534;12.784;2024-03-08T20:59:44;95823.34;;;3.42
73894;BMP280;62699;50.534;12.784;2024-03-08T21:04:45;95810.41;;;3.35
73894;BMP280;62699;50.534;12.784;2024-03-08T21:09:48;95799.19;;;3.31
73894;BMP280;62699;50.534;12.784;2024-03-08T21:14:51;95787.97;;;3.27
73894;BMP280;62699;50.534;12.784;2024-03-08T21:19:52;95792.81;;;3.29
73894;BMP280;62699;50.534;12.784;2024-03-08T21:24:52;95778.41;;;3.21
73894;BMP280;62699;50.534;12.784;2024-03-08T21:29:52;95786.84;;;3.19
73894;BMP280;62699;50.534;12.784;2024-03-08T21:34:53;95780.97;;;3.15
73894;BMP280;62699;50.534;12.784;2024-03-08T21:39:54;95773.00;;;3.15
73894;BMP280;62699;50.534;12.784;2024-03-08T21:44:54;95756.75;;;3.13
73894;BMP280;62699;50.534;12.784;2024-03-08T21:49:56;95757.63;;;3.10
73894;BMP280;62699;50.534;12.784;2024-03-08T21:54:57;95743.50;;;3.04
73894;BMP280;62699;50.534;12.784;2024-03-08T21:59:58;95747.63;;;3.05
73894;BMP280;62699;50.534;12.784;2024-03-08T22:04:58;95739.47;;;3.09
73894;BMP280;62699;50.534;12.784;2024-03-08T22:09:58;95733.75;;;3.01
73894;BMP280;62699;50.534;12.784;2024-03-08T22:15:00;95721.50;;;3.03
73894;BMP280;62699;50.534;12.784;2024-03-08T22:20:00;95722.34;;;3.10
73894;BMP280;62699;50.534;12.784;2024-03-08T22:25:07;95715.97;;;3.07
73894;BMP280;62699;50.534;12.784;2024-03-08T22:30:09;95704.28;;;3.14
73894;BMP280;62699;50.534;12.784;2024-03-08T22:35:10;95713.00;;;3.14
73894;BMP280;62699;50.534;12.784;2024-03-08T22:40:10;95706.16;;;3.22
73894;BMP280;62699;50.534;12.784;2024-03-08T22:45:11;95701.38;;;3.26
73894;BMP280;62699;50.534;12.784;2024-03-08T22:50:15;95696.28;;;3.37
73894;BMP280;62699;50.534;12.784;2024-03-08T22:55:15;95680.66;;;3.30
73894;BMP280;62699;50.534;12.784;2024-03-08T23:00:19;95681.56;;;3.27
73894;BMP280;62699;50.534;12.784;2024-03-08T23:05:25;95662.13;;;3.21
73894;BMP280;62699;50.534;12.784;2024-03-08T23:10:30;95673.50;;;3.22
73894;BMP280;62699;50.534;12.784;2024-03-08T23:15:30;95677.09;;;3.33
73894;BMP280;62699;50.534;12.784;2024-03-08T23:20:30;95671.78;;;3.33
73894;BMP280;62699;50.534;12.784;2024-03-08T23:25:35;95671.34;;;3.35
73894;BMP280;62699;50.534;12.784;2024-03-08T23:30:35;95669.13;;;3.33
73894;BMP280;62699;50.534;12.784;2024-03-08T23:35:40;95653.88;;;3.49
73894;BMP280;62699;50.534;12.784;2024-03-08T23:40:40;95662.00;;;3.54
73894;BMP280;62699;50.534;12.784;2024-03-08T23:45:41;95672.44;;;3.58
73894;BMP280;62699;50.534;12.784;2024-03-08T23:50:42;95659.59;;;3.56
73894;BMP280;62699;50.534;12.784;2024-03-08T23:55:43;95660.00;;;3.64
